createdAt,value
2019-04-04T00:02:12.985Z,88.00
2019-04-04T00:04:39.793Z,88.10
2019-04-04T00:07:06.473Z,88.17
2019-04-04T00:09:33.694Z,88.33
2019-04-04T00:12:00.359Z,88.35
2019-04-04T00:14:26.936Z,88.32
2019-04-04T00:16:53.482Z,88.42
2019-04-04T00:19:20.025Z,88.52
2019-04-04T00:21:47.946Z,88.59
2019-04-04T00:24:16.616Z,88.55
2019-04-04T00:26:43.416Z,88.53
2019-04-04T00:29:17.346Z,88.65
2019-04-04T00:31:40.241Z,88.85
2019-04-04T00:34:06.735Z,88.76
2019-04-04T00:36:34.597Z,88.82
2019-04-04T00:39:01.561Z,88.97
2019-04-04T00:41:28.187Z,88.92
2019-04-04T00:43:55.173Z,88.97
2019-04-04T00:46:21.785Z,89.05
2019-04-04T00:48:49.575Z,89.10
2019-04-04T00:51:16.296Z,88.95
2019-04-04T00:53:46.174Z,88.88
2019-04-04T00:56:16.089Z,89.15
2019-04-04T00:58:46.926Z,89.09
2019-04-04T01:01:13.621Z,89.24
2019-04-04T01:03:42.384Z,89.45
2019-04-04T01:06:09.030Z,89.61
2019-04-04T01:08:38.029Z,89.63
2019-04-04T01:11:07.604Z,89.67
2019-04-04T01:13:34.270Z,89.73
2019-04-04T01:16:02.858Z,89.88
2019-04-04T01:18:29.712Z,89.88
2019-04-04T01:20:56.701Z,90.03
2019-04-04T01:23:30.997Z,89.98
2019-04-04T01:25:57.504Z,89.89
2019-04-04T01:28:24.094Z,89.86
2019-04-04T01:30:51.173Z,90.04
2019-04-04T01:33:19.740Z,89.85
2019-04-04T01:35:46.365Z,89.58
2019-04-04T01:38:15.241Z,89.39
2019-04-04T01:40:43.114Z,89.18
2019-04-04T01:43:10.144Z,89.28
2019-04-04T01:45:36.694Z,89.25
2019-04-04T01:48:10.160Z,89.14
2019-04-04T01:50:37.345Z,89.20
2019-04-04T01:53:04.004Z,89.02
2019-04-04T01:55:30.745Z,89.19
2019-04-04T01:57:57.336Z,89.24
2019-04-04T02:00:24.146Z,89.25
2019-04-04T02:02:52.453Z,89.42
2019-04-04T02:05:19.280Z,89.33
2019-04-04T02:07:46.222Z,89.31
2019-04-04T02:10:13.276Z,89.24
2019-04-04T02:12:45.232Z,89.42
2019-04-04T02:15:14.358Z,89.26
2019-04-04T02:17:41.532Z,89.55
2019-04-04T02:20:08.214Z,89.73
2019-04-04T02:22:34.718Z,89.72
2019-04-04T02:25:03.078Z,89.85
2019-04-04T02:27:29.676Z,89.87
2019-04-04T02:29:56.565Z,90.03
2019-04-04T02:32:26.520Z,90.17
2019-04-04T02:34:53.335Z,89.93
2019-04-04T02:37:21.352Z,90.12
2019-04-04T02:39:48.329Z,90.44
2019-04-04T02:42:15.138Z,90.61
2019-04-04T02:44:49.736Z,90.44
2019-04-04T02:47:17.394Z,90.45
2019-04-04T02:49:45.103Z,90.40
2019-04-04T02:52:13.332Z,90.45
2019-04-04T02:54:50.297Z,90.41
2019-04-04T02:57:17.521Z,90.35
2019-04-04T02:59:45.235Z,90.46
2019-04-04T03:02:12.177Z,90.61
2019-04-04T03:04:39.126Z,90.60
2019-04-04T03:07:09.104Z,90.73
2019-04-04T03:09:35.768Z,90.91
2019-04-04T03:12:02.382Z,91.09
2019-04-04T03:14:28.906Z,91.47
2019-04-04T03:16:56.894Z,91.52
2019-04-04T03:19:24.379Z,91.41
2019-04-04T03:21:54.770Z,91.65
2019-04-04T03:24:19.410Z,91.63
2019-04-04T03:26:52.168Z,91.41
2019-04-04T03:29:16.427Z,91.15
2019-04-04T03:31:43.004Z,91.27
2019-04-04T03:34:12.482Z,91.05
2019-04-04T03:36:38.162Z,90.90
2019-04-04T03:39:05.815Z,90.88
2019-04-04T03:41:35.947Z,90.85
2019-04-04T03:44:01.127Z,90.79
2019-04-04T03:46:27.687Z,90.73
2019-04-04T03:48:54.218Z,90.66
2019-04-04T03:51:20.752Z,90.72
2019-04-04T03:53:50.435Z,90.98
2019-04-04T03:56:17.273Z,91.13
2019-04-04T03:58:43.890Z,90.91
2019-04-04T04:01:13.197Z,90.42
2019-04-04T04:03:42.119Z,90.83
2019-04-04T04:06:09.802Z,91.11
2019-04-04T04:08:36.727Z,91.45
2019-04-04T04:11:05.779Z,91.52
2019-04-04T04:13:32.405Z,91.61
2019-04-04T04:16:02.460Z,91.74
2019-04-04T04:18:27.707Z,91.79
2019-04-04T04:20:54.658Z,91.69
2019-04-04T04:23:24.049Z,91.69
2019-04-04T04:25:51.060Z,91.82
2019-04-04T04:28:19.684Z,91.82
2019-04-04T04:30:46.091Z,91.94
2019-04-04T04:33:13.039Z,92.08
2019-04-04T04:35:41.910Z,92.28
2019-04-04T04:38:08.630Z,92.26
2019-04-04T04:40:36.662Z,92.29
2019-04-04T04:43:05.352Z,92.11
2019-04-04T04:45:32.589Z,91.96
2019-04-04T04:48:08.071Z,91.87
2019-04-04T04:50:34.758Z,91.78
2019-04-04T04:53:02.003Z,91.50
2019-04-04T04:55:28.726Z,91.58
2019-04-04T04:57:56.415Z,91.76
2019-04-04T05:00:23.421Z,91.66
2019-04-04T05:02:56.350Z,91.50
2019-04-04T05:05:31.885Z,91.33
2019-04-04T05:08:00.376Z,91.08
2019-04-04T05:10:27.596Z,90.64
2019-04-04T05:12:54.724Z,90.39
2019-04-04T05:15:22.283Z,90.32
2019-04-04T05:17:48.864Z,90.02
2019-04-04T05:20:18.516Z,89.67
2019-04-04T05:22:51.366Z,89.54
2019-04-04T05:25:18.443Z,89.37
2019-04-04T05:27:45.058Z,89.00
2019-04-04T05:30:11.790Z,89.05
2019-04-04T05:32:38.744Z,89.01
2019-04-04T05:35:06.353Z,88.61
2019-04-04T05:37:37.877Z,87.96
2019-04-04T05:40:05.128Z,87.78
2019-04-04T05:42:33.123Z,87.82
2019-04-04T05:45:00.693Z,87.45
2019-04-04T05:47:27.671Z,87.05
2019-04-04T05:49:56.891Z,87.32
2019-04-04T05:52:23.807Z,87.63
2019-04-04T05:55:18.459Z,87.29
2019-04-04T05:57:48.999Z,86.95
2019-04-04T06:00:16.218Z,86.82
2019-04-04T06:02:46.627Z,86.20
2019-04-04T06:05:13.815Z,85.06
2019-04-04T06:07:40.724Z,83.96
2019-04-04T06:10:07.680Z,83.90
2019-04-04T06:12:37.287Z,84.10
2019-04-04T06:15:09.509Z,84.51
2019-04-04T06:17:38.741Z,84.45
2019-04-04T06:20:09.035Z,84.50
2019-04-04T06:22:35.818Z,84.32
2019-04-04T06:25:10.806Z,83.74
2019-04-04T06:27:39.824Z,83.85
2019-04-04T06:30:10.009Z,83.62
2019-04-04T06:32:38.844Z,83.19
2019-04-04T06:35:05.901Z,83.27
2019-04-04T06:37:34.315Z,82.72
2019-04-04T06:40:05.814Z,83.41
2019-04-04T06:42:35.893Z,82.97
2019-04-04T06:45:01.719Z,82.06
2019-04-04T06:47:36.484Z,81.90
2019-04-04T06:50:07.013Z,82.18
2019-04-04T06:52:33.247Z,82.07
2019-04-04T06:55:04.516Z,81.63
2019-04-04T06:57:36.743Z,81.33
2019-04-04T07:00:04.350Z,80.37
2019-04-04T07:02:30.985Z,80.06
2019-04-04T07:04:57.776Z,79.95
2019-04-04T07:07:24.489Z,79.77
2019-04-04T07:09:51.064Z,79.08
2019-04-04T07:12:24.414Z,78.49
2019-04-04T07:14:49.374Z,77.42
2019-04-04T07:17:16.311Z,76.97
2019-04-04T07:19:45.867Z,77.24
2019-04-04T07:22:20.742Z,76.66
2019-04-04T07:24:52.231Z,76.09
2019-04-04T07:27:18.838Z,76.06
2019-04-04T07:29:45.516Z,75.96
2019-04-04T07:32:12.030Z,75.56
2019-04-04T07:34:38.632Z,75.54
2019-04-04T07:37:09.803Z,75.00
2019-04-04T07:39:36.497Z,74.88
2019-04-04T07:42:03.287Z,75.06
2019-04-04T07:44:30.423Z,76.24
2019-04-04T07:46:56.993Z,75.25
2019-04-04T07:49:23.960Z,75.33
2019-04-04T07:51:50.790Z,74.72
2019-04-04T07:54:17.789Z,75.11
2019-04-04T07:56:47.969Z,74.70
2019-04-04T07:59:13.777Z,74.76
2019-04-04T08:01:50.597Z,74.17
2019-04-04T08:04:09.608Z,74.02
2019-04-04T08:06:36.220Z,74.43
2019-04-04T08:09:05.303Z,74.43
2019-04-04T08:11:32.694Z,74.36
2019-04-04T08:14:00.178Z,74.06
2019-04-04T08:16:29.210Z,72.79
2019-04-04T08:18:56.118Z,72.74
2019-04-04T08:21:23.106Z,72.90
2019-04-04T08:23:50.122Z,72.31
2019-04-04T08:26:16.759Z,72.18
2019-04-04T08:28:43.659Z,72.19
2019-04-04T08:31:10.449Z,71.78
2019-04-04T08:33:37.125Z,71.50
2019-04-04T08:36:06.113Z,71.09
2019-04-04T08:38:42.297Z,71.03
2019-04-04T08:41:08.965Z,70.96
2019-04-04T08:43:35.803Z,70.97
2019-04-04T08:46:02.407Z,70.34
2019-04-04T08:48:29.135Z,70.68
2019-04-04T08:50:58.394Z,71.59
2019-04-04T08:53:25.219Z,71.50
2019-04-04T08:55:53.128Z,71.96
2019-04-04T08:58:19.729Z,71.44
2019-04-04T09:00:46.907Z,71.46
2019-04-04T09:03:13.704Z,71.00
2019-04-04T09:05:40.470Z,71.23
2019-04-04T09:08:08.504Z,71.71
2019-04-04T09:10:35.581Z,72.57
2019-04-04T09:13:02.146Z,72.60
2019-04-04T09:15:28.839Z,72.04
2019-04-04T09:17:56.858Z,71.59
2019-04-04T09:20:23.454Z,71.60
2019-04-04T09:22:50.053Z,71.34
2019-04-04T09:25:16.866Z,72.01
2019-04-04T09:27:43.577Z,72.07
2019-04-04T09:30:17.186Z,72.36
2019-04-04T09:32:44.229Z,71.91
2019-04-04T09:35:11.195Z,71.60
2019-04-04T09:37:37.943Z,71.11
2019-04-04T09:40:05.718Z,71.68
2019-04-04T09:42:32.411Z,71.12
2019-04-04T09:45:03.881Z,71.55
2019-04-04T09:47:30.678Z,71.27
2019-04-04T09:49:57.675Z,70.24
2019-04-04T09:52:24.363Z,68.97
2019-04-04T09:54:50.963Z,67.01
2019-04-04T09:57:17.528Z,66.47
2019-04-04T09:59:45.219Z,66.10
2019-04-04T10:02:11.867Z,65.87
2019-04-04T10:04:38.656Z,66.43
2019-04-04T10:07:05.866Z,65.35
2019-04-04T10:09:33.619Z,65.20
2019-04-04T10:12:00.810Z,65.14
2019-04-04T10:14:27.720Z,65.46
2019-04-04T10:16:54.352Z,65.98
2019-04-04T10:19:21.159Z,65.32
2019-04-04T10:21:47.925Z,65.96
2019-04-04T10:24:14.776Z,65.03
2019-04-04T10:26:41.461Z,65.12
2019-04-04T10:29:08.110Z,65.23
2019-04-04T10:31:34.833Z,65.71
2019-04-04T10:34:01.540Z,66.25
2019-04-04T10:36:29.453Z,66.51
2019-04-04T10:38:56.102Z,65.47
2019-04-04T10:41:23.421Z,65.08
2019-04-04T10:43:51.135Z,63.76
2019-04-04T10:46:17.823Z,61.91
2019-04-04T10:48:49.679Z,60.21
2019-04-04T10:51:16.418Z,59.77
2019-04-04T10:53:43.241Z,58.41
2019-04-04T10:56:09.934Z,59.40
2019-04-04T10:58:36.827Z,57.97
2019-04-04T11:01:03.477Z,55.52
2019-04-04T11:03:30.078Z,54.44
2019-04-04T11:05:59.439Z,53.87
2019-04-04T11:08:26.922Z,55.50
2019-04-04T11:10:53.568Z,52.82
2019-04-04T11:13:32.779Z,53.00
2019-04-04T11:15:50.423Z,52.68
2019-04-04T11:18:17.426Z,51.31
2019-04-04T11:20:44.745Z,50.77
2019-04-04T11:23:12.189Z,50.90
2019-04-04T11:25:45.198Z,50.17
2019-04-04T11:28:12.204Z,51.10
2019-04-04T11:30:38.836Z,49.46
2019-04-04T11:33:05.415Z,50.30
2019-04-04T11:35:32.608Z,50.92
2019-04-04T11:37:59.440Z,53.26
2019-04-04T11:40:30.571Z,54.00
2019-04-04T11:42:57.214Z,51.83
2019-04-04T11:45:25.017Z,52.19
2019-04-04T11:47:51.640Z,52.31
2019-04-04T11:50:18.599Z,53.38
2019-04-04T11:52:46.902Z,51.88
2019-04-04T11:55:17.969Z,50.21
2019-04-04T11:57:45.479Z,50.58
2019-04-04T12:00:17.140Z,51.06
2019-04-04T12:02:44.448Z,53.04
2019-04-04T12:05:11.342Z,54.57
2019-04-04T12:07:38.527Z,55.41
2019-04-04T12:10:07.848Z,57.20
2019-04-04T12:12:34.423Z,56.19
2019-04-04T12:15:05.148Z,54.39
2019-04-04T12:17:32.273Z,56.89
2019-04-04T12:19:58.861Z,56.70
2019-04-04T12:22:31.491Z,56.71
2019-04-04T12:24:58.135Z,55.83
2019-04-04T12:27:26.114Z,55.25
2019-04-04T12:29:52.710Z,55.74
2019-04-04T12:32:19.513Z,54.28
2019-04-04T12:34:46.128Z,54.61
2019-04-04T12:37:12.848Z,54.99
2019-04-04T12:39:46.477Z,56.22
2019-04-04T12:42:13.186Z,56.82
2019-04-04T12:44:42.201Z,57.77
2019-04-04T12:47:09.031Z,57.47
2019-04-04T12:49:35.611Z,56.93
2019-04-04T12:52:02.682Z,57.75
2019-04-04T12:54:29.416Z,58.24
2019-04-04T12:56:56.027Z,58.25
2019-04-04T12:59:24.364Z,59.75
2019-04-04T13:01:51.546Z,60.06
2019-04-04T13:04:18.311Z,60.20
2019-04-04T13:06:47.246Z,60.82
2019-04-04T13:09:14.248Z,61.32
2019-04-04T13:11:40.952Z,60.68
2019-04-04T13:14:08.715Z,61.97
2019-04-04T13:16:38.301Z,62.47
2019-04-04T13:19:12.536Z,62.89
2019-04-04T13:21:39.152Z,62.09
2019-04-04T13:24:06.265Z,62.57
2019-04-04T13:26:33.013Z,63.21
2019-04-04T13:29:00.230Z,63.25
2019-04-04T13:31:26.962Z,62.92
2019-04-04T13:33:56.156Z,63.74
2019-04-04T13:36:22.897Z,62.96
2019-04-04T13:39:00.104Z,63.10
2019-04-04T13:41:26.674Z,62.59
2019-04-04T13:43:57.844Z,63.62
2019-04-04T13:46:25.938Z,63.35
2019-04-04T13:48:54.093Z,63.50
2019-04-04T13:51:21.200Z,64.33
2019-04-04T13:53:48.207Z,64.13
2019-04-04T13:56:30.270Z,64.89
2019-04-04T13:59:01.205Z,65.12
2019-04-04T14:01:25.691Z,65.12
2019-04-04T14:03:54.860Z,65.60
2019-04-04T14:06:21.876Z,66.25
2019-04-04T14:08:48.842Z,66.60
2019-04-04T14:11:15.873Z,66.65
2019-04-04T14:13:43.060Z,67.23
2019-04-04T14:16:11.162Z,67.18
2019-04-04T14:18:48.697Z,66.70
2019-04-04T14:21:15.789Z,66.33
2019-04-04T14:23:45.194Z,66.39
2019-04-04T14:26:11.287Z,66.38
2019-04-04T14:28:39.141Z,66.37
2019-04-04T14:31:06.753Z,66.47
2019-04-04T14:33:33.538Z,66.08
2019-04-04T14:36:00.232Z,66.32
2019-04-04T14:38:27.185Z,66.28
2019-04-04T14:40:55.851Z,66.45
2019-04-04T14:43:23.995Z,66.62
2019-04-04T14:45:50.787Z,67.00
2019-04-04T14:48:20.322Z,67.27
2019-04-04T14:50:47.373Z,67.63
2019-04-04T14:53:21.769Z,67.93
2019-04-04T14:55:50.149Z,67.00
2019-04-04T14:58:16.893Z,67.16
2019-04-04T15:00:43.569Z,66.93
2019-04-04T15:03:11.253Z,67.06
2019-04-04T15:05:37.980Z,66.83
2019-04-04T15:08:04.834Z,67.22
2019-04-04T15:10:32.526Z,67.03
2019-04-04T15:12:59.202Z,67.22
2019-04-04T15:15:31.433Z,67.45
2019-04-04T15:17:59.268Z,66.81
2019-04-04T15:20:36.111Z,66.88
2019-04-04T15:23:03.412Z,67.04
2019-04-04T15:25:30.586Z,67.21
2019-04-04T15:27:57.920Z,67.24
2019-04-04T15:30:24.727Z,67.12
2019-04-04T15:32:51.784Z,67.14
2019-04-04T15:35:27.842Z,66.69
2019-04-04T15:37:55.042Z,65.79
2019-04-04T15:40:35.379Z,65.36
2019-04-04T15:43:02.273Z,65.45
2019-04-04T15:45:28.898Z,66.43
2019-04-04T15:47:56.736Z,65.84
2019-04-04T15:50:23.543Z,65.79
2019-04-04T15:52:50.600Z,65.46
2019-04-04T15:55:18.302Z,65.20
2019-04-04T15:57:45.466Z,65.56
2019-04-04T16:00:12.391Z,65.36
2019-04-04T16:02:40.104Z,65.35
2019-04-04T16:05:07.246Z,65.48
2019-04-04T16:07:34.352Z,65.05
2019-04-04T16:10:01.204Z,65.45
2019-04-04T16:12:27.963Z,65.38
2019-04-04T16:14:54.684Z,65.78
2019-04-04T16:17:21.379Z,65.71
2019-04-04T16:19:52.348Z,65.89
2019-04-04T16:22:19.075Z,66.23
2019-04-04T16:24:46.790Z,65.83
2019-04-04T16:27:17.106Z,67.04
2019-04-04T16:29:44.337Z,68.69
2019-04-04T16:32:13.392Z,69.57
2019-04-04T16:34:40.400Z,69.59
2019-04-04T16:37:07.070Z,69.87
2019-04-04T16:39:35.479Z,69.62
2019-04-04T16:42:02.921Z,69.49
2019-04-04T16:44:29.933Z,69.60
2019-04-04T16:46:56.533Z,70.33
2019-04-04T16:49:23.342Z,70.83
2019-04-04T16:51:51.132Z,71.27
2019-04-04T16:54:18.039Z,71.61
2019-04-04T16:56:56.865Z,72.11
2019-04-04T16:59:25.651Z,72.37
2019-04-04T17:01:52.361Z,72.92
2019-04-04T17:04:19.633Z,72.94
2019-04-04T17:06:46.235Z,73.32
2019-04-04T17:09:13.869Z,73.20
2019-04-04T17:11:40.775Z,73.95
2019-04-04T17:14:07.412Z,74.25
2019-04-04T17:16:34.021Z,74.66
2019-04-04T17:19:00.868Z,74.93
2019-04-04T17:21:27.456Z,75.27
2019-04-04T17:23:54.041Z,75.91
2019-04-04T17:26:20.621Z,75.92
2019-04-04T17:28:49.017Z,76.10
2019-04-04T17:31:15.836Z,76.62
2019-04-04T17:33:43.370Z,76.46
2019-04-04T17:36:10.681Z,76.27
2019-04-04T17:38:37.309Z,76.98
2019-04-04T17:41:04.413Z,77.56
2019-04-04T17:43:31.330Z,78.26
2019-04-04T17:45:57.905Z,78.80
2019-04-04T17:48:27.089Z,79.32
2019-04-04T17:50:53.929Z,79.40
2019-04-04T17:53:21.396Z,79.98
2019-04-04T17:55:48.514Z,80.27
2019-04-04T17:58:15.034Z,80.49
2019-04-04T18:00:41.685Z,80.99
2019-04-04T18:03:08.359Z,81.30
2019-04-04T18:05:35.011Z,81.29
2019-04-04T18:08:01.570Z,81.52
2019-04-04T18:10:28.378Z,82.15
2019-04-04T18:12:54.938Z,82.54
2019-04-04T18:15:34.835Z,82.93
2019-04-04T18:18:04.992Z,82.99
2019-04-04T18:21:43.894Z,83.23
2019-04-04T18:24:10.641Z,83.50
2019-04-04T18:26:38.530Z,83.81
2019-04-04T18:32:32.224Z,84.50
2019-04-04T18:35:00.254Z,84.58
2019-04-04T18:37:28.769Z,84.32
2019-04-04T18:39:58.311Z,85.23
2019-04-04T18:42:26.526Z,85.49
2019-04-04T18:44:54.617Z,85.54
2019-04-04T18:47:21.230Z,85.82
2019-04-04T18:49:48.875Z,85.71
2019-04-04T18:52:17.078Z,85.78
2019-04-04T18:54:46.419Z,85.88
2019-04-04T18:57:13.510Z,85.76
2019-04-04T18:59:54.407Z,85.67
2019-04-04T19:02:23.974Z,85.58
2019-04-04T19:04:52.180Z,85.25
2019-04-04T19:07:20.255Z,85.23
2019-04-04T19:09:53.762Z,84.87
2019-04-04T19:12:24.805Z,84.77
2019-04-04T19:14:52.695Z,84.55
2019-04-04T19:17:20.155Z,84.47
2019-04-04T19:19:50.216Z,84.41
2019-04-04T19:22:17.261Z,84.08
2019-04-04T19:24:50.297Z,84.28
2019-04-04T19:27:18.756Z,84.49
2019-04-04T19:29:46.074Z,84.33
2019-04-04T19:32:14.725Z,84.61
2019-04-04T19:34:44.156Z,84.78
2019-04-04T19:37:11.379Z,84.84
2019-04-04T19:39:45.344Z,85.18
2019-04-04T19:42:26.409Z,85.27
2019-04-04T19:44:53.920Z,85.17
2019-04-04T19:47:21.092Z,85.50
2019-04-04T19:49:48.819Z,85.60
2019-04-04T19:52:18.506Z,85.81
2019-04-04T19:54:46.506Z,85.78
2019-04-04T19:57:13.208Z,85.97
2019-04-04T19:59:40.289Z,85.79
2019-04-04T20:02:08.974Z,85.80
2019-04-04T20:04:37.635Z,85.60
2019-04-04T20:07:07.418Z,85.98
2019-04-04T20:09:34.089Z,86.23
2019-04-04T20:12:02.978Z,86.36
2019-04-04T20:14:30.573Z,86.93
2019-04-04T20:16:58.255Z,86.75
2019-04-04T20:19:25.056Z,86.78
2019-04-04T20:21:51.650Z,86.87
2019-04-04T20:24:18.186Z,86.60
2019-04-04T20:26:44.750Z,86.55
2019-04-04T20:29:11.647Z,87.01
2019-04-04T20:31:38.292Z,86.94
2019-04-04T20:34:06.156Z,87.09
2019-04-04T20:36:33.218Z,87.06
2019-04-04T20:38:59.776Z,86.97
2019-04-04T20:41:26.358Z,87.00
2019-04-04T20:43:54.945Z,87.20
2019-04-04T20:46:21.446Z,87.24
2019-04-04T20:48:48.356Z,87.66
2019-04-04T20:51:14.880Z,87.52
2019-04-04T20:53:41.462Z,87.77
2019-04-04T20:56:18.168Z,87.58
2019-04-04T20:58:44.983Z,87.76
2019-04-04T21:01:11.802Z,87.87
2019-04-04T21:03:38.537Z,87.96
2019-04-04T21:06:05.277Z,87.77
2019-04-04T21:08:31.828Z,87.83
2019-04-04T21:10:58.359Z,87.54
2019-04-04T21:13:24.929Z,87.07
2019-04-04T21:15:51.765Z,87.07
2019-04-04T21:18:19.433Z,87.32
2019-04-04T21:20:46.053Z,87.46
2019-04-04T21:23:13.651Z,87.52
2019-04-04T21:25:40.520Z,87.20
2019-04-04T21:28:07.415Z,87.34
2019-04-04T21:30:34.166Z,87.54
2019-04-04T21:33:00.767Z,87.43
2019-04-04T21:35:28.402Z,87.18
2019-04-04T21:37:59.461Z,87.12
2019-04-04T21:40:26.681Z,87.27
2019-04-04T21:42:53.192Z,87.45
2019-04-04T21:45:19.747Z,87.53
2019-04-04T21:47:46.576Z,87.77
2019-04-04T21:50:13.288Z,88.00
2019-04-04T21:52:40.929Z,88.67
2019-04-04T21:55:07.778Z,88.86
2019-04-04T21:57:34.451Z,88.84
2019-04-04T22:00:00.956Z,89.11
2019-04-04T22:02:27.529Z,89.02
2019-04-04T22:04:54.113Z,89.09
2019-04-04T22:07:20.762Z,89.00
2019-04-04T22:09:47.272Z,88.83
2019-04-04T22:12:14.483Z,89.03
2019-04-04T22:14:41.105Z,89.08
2019-04-04T22:17:08.444Z,89.22
2019-04-04T22:19:37.710Z,89.24
2019-04-04T22:22:04.213Z,89.27
2019-04-04T22:24:30.909Z,89.08
2019-04-04T22:26:57.907Z,88.88
2019-04-04T22:29:24.423Z,89.27
2019-04-04T22:31:53.414Z,89.19
2019-04-04T22:34:19.970Z,89.59
2019-04-04T22:36:46.588Z,89.32
2019-04-04T22:39:16.151Z,89.29
2019-04-04T22:41:45.583Z,89.45
2019-04-04T22:44:15.214Z,89.33
2019-04-04T22:46:44.787Z,89.24
2019-04-04T22:49:13.525Z,89.15
2019-04-04T22:51:40.193Z,89.01
2019-04-04T22:54:06.775Z,89.03
2019-04-04T22:56:33.463Z,88.97
2019-04-04T22:59:01.861Z,88.79
2019-04-04T23:01:29.259Z,88.90
2019-04-04T23:03:56.421Z,89.00
2019-04-04T23:06:23.041Z,89.14
2019-04-04T23:08:50.713Z,89.04
2019-04-04T23:11:17.270Z,89.15
2019-04-04T23:13:43.824Z,88.99
2019-04-04T23:16:10.446Z,89.17
2019-04-04T23:18:37.011Z,89.28
2019-04-04T23:21:03.697Z,89.43
2019-04-04T23:23:30.369Z,89.74
2019-04-04T23:25:56.963Z,89.72
2019-04-04T23:28:23.488Z,89.73
2019-04-04T23:30:50.067Z,89.84
2019-04-04T23:33:20.917Z,89.75
2019-04-04T23:35:47.392Z,89.48
2019-04-04T23:38:13.924Z,89.56
2019-04-04T23:40:40.701Z,89.52
2019-04-04T23:43:07.230Z,89.64
2019-04-04T23:45:33.863Z,89.84
2019-04-04T23:48:02.159Z,89.88
2019-04-04T23:50:29.860Z,90.54
2019-04-04T23:52:57.000Z,90.43
2019-04-04T23:55:23.590Z,90.57
2019-04-04T23:57:50.127Z,90.74
